Terminal Aerodrome Forecast
Issued by NWS

Home | Current Version | Previous Version | Text Only | Print | Product List | Glossary On
Versions: 1 2 3 4 5 6 7 8 9 10 11 12 13 14 15 16
000
FTUS43 KOAX 311720
TAFSNY
TAF
KSNY 311720Z 3118/0118 16009KT P6SM SCT020
     FM312200 13013KT P6SM SCT080
     FM010700 15011KT 1SM BR SCT070
     FM011000 16011KT 1SM BR SCT008
     FM011100 16012KT 2SM BR BKN003=

USA.gov is the U.S. government's official web portal to all federal, state and local government web resources and services.